createdAt,value
2017-01-25T00:00:45.603Z,19.83
2017-01-25T00:01:45.239Z,19.91
2017-01-25T00:02:44.855Z,19.83
2017-01-25T00:03:45.541Z,19.84
2017-01-25T00:04:45.712Z,19.77
2017-01-25T00:05:44.942Z,19.83
2017-01-25T00:06:45.370Z,19.78
2017-01-25T00:07:45.388Z,19.74
2017-01-25T00:08:45.668Z,19.8
2017-01-25T00:09:45.442Z,19.69
2017-01-25T00:10:45.862Z,19.74
2017-01-25T00:11:45.099Z,19.69
2017-01-25T00:12:45.127Z,19.73
2017-01-25T00:13:45.800Z,19.66
2017-01-25T00:14:45.964Z,19.74
2017-01-25T00:15:45.594Z,19.69
2017-01-25T00:16:45.227Z,19.65
2017-01-25T00:17:45.647Z,19.68
2017-01-25T00:18:45.528Z,19.71
2017-01-25T00:19:45.696Z,19.65
2017-01-25T00:20:45.726Z,19.63
2017-01-25T00:21:45.354Z,19.61
2017-01-25T00:22:45.774Z,19.63
2017-01-25T00:23:45.657Z,19.59
2017-01-25T00:24:45.432Z,19.62
2017-01-25T00:25:45.857Z,19.65
2017-01-25T00:26:45.477Z,19.59
2017-01-25T00:27:46.303Z,19.54
2017-01-25T00:28:46.579Z,19.5
2017-01-25T00:29:46.358Z,19.54
2017-01-25T00:30:46.378Z,19.5
2017-01-25T00:31:45.613Z,19.55
2017-01-25T00:32:46.042Z,19.5
2017-01-25T00:33:46.313Z,19.5
2017-01-25T00:34:46.080Z,19.5
2017-01-25T00:35:45.715Z,19.55
2017-01-25T00:36:46.141Z,19.47
2017-01-25T00:37:45.769Z,19.4
2017-01-25T00:38:46.293Z,19.48
2017-01-25T00:39:46.219Z,19.44
2017-01-25T00:40:46.640Z,19.46
2017-01-25T00:41:46.682Z,19.48
2017-01-25T00:42:46.289Z,19.47
2017-01-25T00:43:46.968Z,19.44
2017-01-25T00:44:46.342Z,19.36
2017-01-25T00:45:45.971Z,19.43
2017-01-25T00:46:46.392Z,19.33
2017-01-25T00:47:46.049Z,19.48
2017-01-25T00:48:46.450Z,19.46
2017-01-25T00:49:46.470Z,19.46
2017-01-25T00:50:46.896Z,19.41
2017-01-25T00:51:46.921Z,19.39
2017-01-25T00:52:46.144Z,19.41
2017-01-25T00:53:46.602Z,19.37
2017-01-25T00:54:46.989Z,19.39
2017-01-25T00:55:46.226Z,19.44
2017-01-25T00:56:46.259Z,19.37
2017-01-25T00:57:46.681Z,19.29
2017-01-25T00:58:46.304Z,19.32
2017-01-25T00:59:46.979Z,19.19
2017-01-25T01:00:47.152Z,19.25
2017-01-25T01:01:47.175Z,19.26
2017-01-25T01:02:47.199Z,19.32
2017-01-25T01:03:47.227Z,19.26
2017-01-25T01:04:47.497Z,19.22
2017-01-25T01:05:46.478Z,19.33
2017-01-25T01:06:46.511Z,19.29
2017-01-25T01:07:46.935Z,19.22
2017-01-25T01:08:46.561Z,19.28
2017-01-25T01:09:47.240Z,19.14
2017-01-25T01:10:47.010Z,19.31
2017-01-25T01:11:47.427Z,19.23
2017-01-25T01:12:47.459Z,19.25
2017-01-25T01:13:47.088Z,19.18
2017-01-25T01:14:47.621Z,19.21
2017-01-25T01:15:46.741Z,19.19
2017-01-25T01:16:46.767Z,19.19
2017-01-25T01:17:47.583Z,19.18
2017-01-25T01:18:47.611Z,19.18
2017-01-25T01:19:47.890Z,19.14
2017-01-25T01:20:46.869Z,19.19
2017-01-25T01:21:47.290Z,19.18
2017-01-25T01:22:47.319Z,19.16
2017-01-25T01:23:47.740Z,19.18
2017-01-25T01:24:47.361Z,19.22
2017-01-25T01:25:46.988Z,19.16
2017-01-25T01:26:47.418Z,19.13
2017-01-25T01:27:47.095Z,19.08
2017-01-25T01:28:47.462Z,19.21
2017-01-25T01:29:47.493Z,19.11
2017-01-25T01:30:47.123Z,19.13
2017-01-25T01:31:47.541Z,19.16
2017-01-25T01:32:47.967Z,19.14
2017-01-25T01:33:47.994Z,19.1
2017-01-25T01:34:47.620Z,19.18
2017-01-25T01:35:48.044Z,19.08
2017-01-25T01:36:47.280Z,19.13
2017-01-25T01:37:47.694Z,19.16
2017-01-25T01:38:47.322Z,19.06
2017-01-25T01:39:47.751Z,19.11
2017-01-25T01:40:47.377Z,19.07
2017-01-25T01:41:47.828Z,19.07
2017-01-25T01:42:48.217Z,19.11
2017-01-25T01:43:47.458Z,19.06
2017-01-25T01:44:47.887Z,19.11
2017-01-25T01:45:47.895Z,19.13
2017-01-25T01:46:47.924Z,19.11
2017-01-25T01:47:47.953Z,19.04
2017-01-25T01:48:48.366Z,19.14
2017-01-25T01:49:47.999Z,19
2017-01-25T01:50:47.882Z,19.11
2017-01-25T01:51:47.661Z,19
2017-01-25T01:52:47.681Z,19.11
2017-01-25T01:53:48.498Z,19.04
2017-01-25T01:54:48.536Z,18.98
2017-01-25T01:55:48.398Z,18.99
2017-01-25T01:56:48.184Z,19
2017-01-25T01:57:48.216Z,19.06
2017-01-25T01:58:48.230Z,19.06
2017-01-25T01:59:48.255Z,18.85
2017-01-25T02:00:48.527Z,18.99
2017-01-25T02:01:48.299Z,18.99
2017-01-25T02:02:48.724Z,18.98
2017-01-25T02:03:47.969Z,19
2017-01-25T02:04:48.777Z,18.91
2017-01-25T02:05:49.055Z,18.92
2017-01-25T02:06:48.822Z,18.99
2017-01-25T02:07:48.068Z,18.95
2017-01-25T02:08:48.900Z,18.92
2017-01-25T02:09:48.110Z,18.92
2017-01-25T02:10:48.386Z,18.98
2017-01-25T02:11:48.167Z,18.91
2017-01-25T02:12:48.980Z,18.9
2017-01-25T02:13:49.001Z,18.88
2017-01-25T02:14:48.633Z,18.9
2017-01-25T02:15:48.513Z,18.88
2017-01-25T02:16:49.078Z,18.85
2017-01-25T02:17:48.315Z,18.9
2017-01-25T02:18:48.736Z,18.9
2017-01-25T02:19:49.188Z,18.82
2017-01-25T02:20:49.085Z,18.8
2017-01-25T02:21:48.418Z,18.9
2017-01-25T02:22:48.443Z,18.81
2017-01-25T02:23:49.260Z,18.78
2017-01-25T02:24:49.291Z,18.75
2017-01-25T02:25:49.565Z,18.82
2017-01-25T02:26:48.537Z,18.81
2017-01-25T02:27:48.971Z,18.78
2017-01-25T02:28:48.599Z,18.84
2017-01-25T02:29:49.016Z,18.84
2017-01-25T02:30:48.892Z,18.82
2017-01-25T02:31:48.674Z,18.73
2017-01-25T02:32:49.090Z,18.82
2017-01-25T02:33:49.514Z,18.78
2017-01-25T02:34:49.543Z,18.81
2017-01-25T02:35:49.015Z,18.78
2017-01-25T02:36:48.797Z,18.73
2017-01-25T02:37:49.217Z,18.75
2017-01-25T02:38:48.846Z,18.75
2017-01-25T02:39:48.875Z,18.8
2017-01-25T02:40:49.551Z,18.76
2017-01-25T02:41:49.340Z,18.69
2017-01-25T02:42:49.345Z,18.69
2017-01-25T02:43:49.357Z,18.76
2017-01-25T02:44:49.786Z,18.72
2017-01-25T02:45:50.066Z,18.75
2017-01-25T02:46:49.444Z,18.7
2017-01-25T02:47:49.508Z,18.69
2017-01-25T02:48:49.898Z,18.72
2017-01-25T02:49:49.121Z,18.66
2017-01-25T02:50:49.539Z,18.66
2017-01-25T02:51:49.572Z,18.66
2017-01-25T02:52:49.597Z,18.63
2017-01-25T02:53:49.621Z,18.6
2017-01-25T02:54:50.038Z,18.65
2017-01-25T02:55:49.275Z,18.66
2017-01-25T02:56:49.699Z,18.62
2017-01-25T02:57:49.718Z,18.67
2017-01-25T02:58:50.144Z,18.6
2017-01-25T02:59:49.778Z,18.6
2017-01-25T03:00:49.797Z,18.63
2017-01-25T03:01:49.427Z,18.62
2017-01-25T03:02:49.844Z,18.6
2017-01-25T03:03:49.873Z,18.62
2017-01-25T03:04:49.501Z,18.65
2017-01-25T03:05:49.918Z,18.55
2017-01-25T03:06:49.943Z,18.63
2017-01-25T03:07:49.975Z,18.63
2017-01-25T03:08:49.603Z,18.63
2017-01-25T03:09:49.625Z,18.62
2017-01-25T03:10:50.441Z,18.65
2017-01-25T03:11:50.321Z,18.57
2017-01-25T03:12:50.099Z,18.66
2017-01-25T03:13:50.119Z,18.48
2017-01-25T03:14:50.553Z,18.58
2017-01-25T03:15:50.173Z,18.57
2017-01-25T03:16:50.054Z,18.44
2017-01-25T03:17:50.620Z,18.45
2017-01-25T03:18:50.251Z,18.48
2017-01-25T03:19:50.264Z,18.5
2017-01-25T03:20:50.304Z,18.52
2017-01-25T03:21:50.598Z,18.47
2017-01-25T03:22:49.967Z,18.52
2017-01-25T03:23:50.780Z,18.47
2017-01-25T03:24:50.396Z,18.48
2017-01-25T03:25:50.417Z,18.45
2017-01-25T03:26:50.693Z,18.5
2017-01-25T03:27:50.078Z,18.5
2017-01-25T03:28:50.495Z,18.45
2017-01-25T03:29:50.524Z,18.52
2017-01-25T03:30:50.547Z,18.55
2017-01-25T03:31:50.832Z,18.41
2017-01-25T03:32:50.602Z,18.45
2017-01-25T03:33:50.226Z,18.5
2017-01-25T03:34:51.039Z,18.41
2017-01-25T03:35:50.276Z,18.41
2017-01-25T03:36:50.944Z,18.42
2017-01-25T03:37:50.329Z,18.5
2017-01-25T03:38:50.750Z,18.47
2017-01-25T03:39:50.375Z,18.41
2017-01-25T03:40:50.803Z,18.44
2017-01-25T03:41:51.105Z,18.33
2017-01-25T03:42:51.250Z,18.42
2017-01-25T03:43:51.269Z,18.42
2017-01-25T03:44:51.294Z,18.39
2017-01-25T03:45:50.927Z,18.36
2017-01-25T03:46:51.201Z,18.36
2017-01-25T03:47:50.584Z,18.39
2017-01-25T03:48:51.005Z,18.41
2017-01-25T03:49:51.423Z,18.41
2017-01-25T03:50:51.047Z,18.39
2017-01-25T03:51:51.327Z,18.37
2017-01-25T03:52:51.497Z,18.33
2017-01-25T03:53:51.121Z,18.37
2017-01-25T03:54:51.150Z,18.35
2017-01-25T03:55:50.779Z,18.32
2017-01-25T03:56:51.051Z,18.33
2017-01-25T03:57:50.824Z,18.32
2017-01-25T03:58:51.251Z,18.32
2017-01-25T03:59:51.282Z,18.35
2017-01-25T04:00:52.490Z,18.33
2017-01-25T04:01:51.182Z,18.27
2017-01-25T04:02:51.752Z,18.3
2017-01-25T04:03:51.769Z,18.3
2017-01-25T04:04:51.005Z,18.26
2017-01-25T04:05:51.818Z,18.29
2017-01-25T04:06:52.098Z,18.3
2017-01-25T04:07:51.875Z,18.25
2017-01-25T04:08:51.501Z,18.23
2017-01-25T04:09:51.921Z,18.29
2017-01-25T04:10:51.153Z,18.26
2017-01-25T04:11:51.178Z,18.26
2017-01-25T04:12:51.235Z,18.26
2017-01-25T04:13:52.011Z,18.33
2017-01-25T04:14:51.678Z,18.29
2017-01-25T04:15:51.277Z,18.2
2017-01-25T04:16:51.694Z,18.27
2017-01-25T04:17:52.124Z,18.21
2017-01-25T04:18:51.798Z,18.21
2017-01-25T04:19:51.773Z,18.23
2017-01-25T04:20:51.797Z,18.25
2017-01-25T04:21:51.821Z,18.21
2017-01-25T04:22:51.850Z,18.25
2017-01-25T04:23:51.479Z,18.21
2017-01-25T04:24:51.504Z,18.2
2017-01-25T04:25:52.320Z,18.23
2017-01-25T04:26:52.337Z,18.18
2017-01-25T04:27:51.577Z,18.17
2017-01-25T04:28:52.000Z,18.18
2017-01-25T04:29:52.020Z,18.11
2017-01-25T04:30:52.044Z,18.14
2017-01-25T04:31:52.468Z,18.15
2017-01-25T04:32:52.093Z,18.17
2017-01-25T04:33:52.118Z,18.2
2017-01-25T04:34:52.152Z,18.11
2017-01-25T04:35:52.171Z,18.17
2017-01-25T04:36:51.794Z,18.12
2017-01-25T04:37:52.081Z,18.17
2017-01-25T04:38:52.245Z,18.2
2017-01-25T04:39:51.875Z,18.14
2017-01-25T04:40:52.294Z,18.11
2017-01-25T04:41:52.712Z,18.12
2017-01-25T04:42:52.845Z,18.14
2017-01-25T04:43:51.977Z,18.1
2017-01-25T04:44:52.405Z,18.11
2017-01-25T04:45:52.022Z,18.07
2017-01-25T04:46:52.044Z,18.14
2017-01-25T04:47:52.724Z,18.12
2017-01-25T04:48:52.093Z,18.11
2017-01-25T04:49:52.909Z,18.08
2017-01-25T04:50:52.946Z,18.12
2017-01-25T04:51:52.991Z,18.2
2017-01-25T04:52:53.244Z,18.11
2017-01-25T04:53:52.640Z,18.17
2017-01-25T04:54:52.253Z,18.08
2017-01-25T04:55:53.062Z,18.05
2017-01-25T04:56:52.303Z,18.08
2017-01-25T04:57:52.971Z,18.08
2017-01-25T04:58:52.752Z,18.08
2017-01-25T04:59:53.161Z,18.05
2017-01-25T05:00:52.796Z,18.02
2017-01-25T05:01:52.815Z,18.15
2017-01-25T05:02:53.491Z,18.02
2017-01-25T05:03:52.868Z,18.03
2017-01-25T05:04:53.295Z,17.97
2017-01-25T05:05:52.915Z,18
2017-01-25T05:06:53.350Z,17.99
2017-01-25T05:07:53.210Z,18
2017-01-25T05:08:53.023Z,18.07
2017-01-25T05:09:53.412Z,18.07
2017-01-25T05:10:53.440Z,17.99
2017-01-25T05:11:53.065Z,17.93
2017-01-25T05:12:53.337Z,18.08
2017-01-25T05:13:52.723Z,18.02
2017-01-25T05:14:52.751Z,18.02
2017-01-25T05:15:53.165Z,17.97
2017-01-25T05:16:52.794Z,17.99
2017-01-25T05:17:53.462Z,17.96
2017-01-25T05:18:53.626Z,18.05
2017-01-25T05:19:52.872Z,17.92
2017-01-25T05:20:53.288Z,17.92
2017-01-25T05:21:53.318Z,17.96
2017-01-25T05:22:53.570Z,18.02
2017-01-25T05:23:52.975Z,17.93
2017-01-25T05:24:53.385Z,18
2017-01-25T05:25:53.012Z,17.96
2017-01-25T05:26:53.042Z,18.1
2017-01-25T05:27:53.708Z,17.99
2017-01-25T05:28:53.090Z,17.95
2017-01-25T05:29:53.115Z,17.99
2017-01-25T05:30:53.139Z,18.15
2017-01-25T05:31:53.564Z,17.95
2017-01-25T05:32:53.185Z,18.08
2017-01-25T05:33:53.210Z,18.02
2017-01-25T05:34:54.033Z,18.1
2017-01-25T05:35:53.655Z,18.1
2017-01-25T05:36:53.284Z,18.12
2017-01-25T05:37:53.704Z,18.11
2017-01-25T05:38:54.129Z,18.14
2017-01-25T05:39:53.754Z,18.15
2017-01-25T05:40:53.414Z,18.17
2017-01-25T05:41:53.406Z,18.2
2017-01-25T05:42:53.427Z,18.25
2017-01-25T05:43:54.499Z,18.3
2017-01-25T05:44:53.481Z,18.3
2017-01-25T05:45:53.902Z,18.26
2017-01-25T05:46:53.530Z,18.29
2017-01-25T05:47:53.954Z,18.32
2017-01-25T05:48:54.627Z,18.39
2017-01-25T05:49:54.002Z,18.41
2017-01-25T05:50:54.421Z,18.41
2017-01-25T05:51:54.057Z,18.41
2017-01-25T05:52:54.078Z,18.44
2017-01-25T05:53:53.966Z,18.44
2017-01-25T05:54:53.731Z,18.44
2017-01-25T05:55:53.781Z,18.48
2017-01-25T05:56:53.781Z,18.51
2017-01-25T05:57:54.201Z,18.54
2017-01-25T05:58:54.084Z,18.57
2017-01-25T05:59:53.855Z,18.58
2017-01-25T06:00:54.276Z,18.57
2017-01-25T06:01:54.693Z,18.6
2017-01-25T06:02:54.726Z,18.57
2017-01-25T06:03:54.995Z,18.63
2017-01-25T06:04:54.775Z,18.63
2017-01-25T06:05:54.012Z,18.62
2017-01-25T06:06:54.044Z,18.63
2017-01-25T06:07:54.458Z,18.6
2017-01-25T06:08:54.347Z,18.7
2017-01-25T06:09:54.499Z,18.62
2017-01-25T06:10:54.528Z,18.66
2017-01-25T06:11:54.952Z,18.75
2017-01-25T06:12:54.969Z,18.75
2017-01-25T06:13:55.255Z,18.65
2017-01-25T06:14:54.230Z,18.7
2017-01-25T06:15:54.647Z,18.78
2017-01-25T06:16:54.675Z,18.73
2017-01-25T06:17:54.689Z,18.75
2017-01-25T06:18:54.981Z,18.7
2017-01-25T06:19:54.354Z,18.75
2017-01-25T06:20:54.371Z,18.78
2017-01-25T06:21:55.192Z,18.73
2017-01-25T06:22:55.225Z,18.73
2017-01-25T06:23:55.101Z,18.78
2017-01-25T06:24:54.869Z,18.75
2017-01-25T06:25:54.904Z,18.78
2017-01-25T06:26:55.333Z,18.76
2017-01-25T06:27:54.948Z,18.75
2017-01-25T06:28:54.581Z,18.72
2017-01-25T06:29:54.998Z,18.76
2017-01-25T06:30:55.414Z,18.66
2017-01-25T06:31:55.439Z,18.75
2017-01-25T06:32:55.079Z,18.76
2017-01-25T06:33:55.098Z,18.72
2017-01-25T06:34:55.373Z,18.81
2017-01-25T06:35:55.214Z,18.75
2017-01-25T06:36:55.244Z,18.75
2017-01-25T06:37:55.257Z,18.8
2017-01-25T06:38:54.893Z,18.78
2017-01-25T06:39:55.158Z,18.84
2017-01-25T06:40:54.936Z,18.82
2017-01-25T06:42:55.389Z,18.81
2017-01-25T06:43:55.383Z,18.87
2017-01-25T06:44:56.020Z,18.78
2017-01-25T06:45:55.793Z,18.81
2017-01-25T06:46:55.813Z,18.87
2017-01-25T06:47:55.843Z,18.8
2017-01-25T06:48:55.869Z,18.82
2017-01-25T06:49:56.139Z,18.85
2017-01-25T06:50:55.525Z,18.9
2017-01-25T06:51:55.941Z,18.8
2017-01-25T06:52:55.183Z,18.84
2017-01-25T06:53:55.631Z,18.87
2017-01-25T06:54:55.876Z,18.85
2017-01-25T06:55:56.047Z,18.87
2017-01-25T06:56:55.672Z,18.88
2017-01-25T06:57:55.719Z,18.88
2017-01-25T06:58:55.724Z,18.92
2017-01-25T06:59:56.392Z,18.94
2017-01-25T07:00:55.776Z,19.02
2017-01-25T07:01:55.805Z,19.04
2017-01-25T07:02:55.821Z,19.04
2017-01-25T07:03:56.235Z,18.88
2017-01-25T07:04:55.735Z,18.99
2017-01-25T07:05:55.509Z,19
2017-01-25T07:06:56.326Z,19.06
2017-01-25T07:07:56.339Z,18.99
2017-01-25T07:08:55.583Z,19.1
2017-01-25T07:09:56.643Z,19.11
2017-01-25T07:10:56.416Z,19.06
2017-01-25T07:11:56.441Z,19.11
2017-01-25T07:12:55.682Z,19
2017-01-25T07:13:55.702Z,19.06
2017-01-25T07:14:56.120Z,19.1
2017-01-25T07:15:55.756Z,19.11
2017-01-25T07:16:56.176Z,19.1
2017-01-25T07:17:56.202Z,18.98
2017-01-25T07:18:55.829Z,19.18
2017-01-25T07:19:55.856Z,19.13
2017-01-25T07:20:56.533Z,19.07
2017-01-25T07:21:56.728Z,19.1
2017-01-25T07:22:56.726Z,19.14
2017-01-25T07:23:56.782Z,19.13
2017-01-25T07:24:56.383Z,19.04
2017-01-25T07:25:56.252Z,19.13
2017-01-25T07:26:56.032Z,19.06
2017-01-25T07:27:56.061Z,19.13
2017-01-25T07:28:56.882Z,19.18
2017-01-25T07:29:56.110Z,19.1
2017-01-25T07:30:56.384Z,19.13
2017-01-25T07:31:56.151Z,19.08
2017-01-25T07:32:56.977Z,19.07
2017-01-25T07:33:57.006Z,19.08
2017-01-25T07:34:57.022Z,19.14
2017-01-25T07:35:56.904Z,19.13
2017-01-25T07:36:56.680Z,19.07
2017-01-25T07:37:56.308Z,19.08
2017-01-25T07:38:56.333Z,19.04
2017-01-25T07:39:56.754Z,19.04
2017-01-25T07:40:57.033Z,19.11
2017-01-25T07:41:56.412Z,19.1
2017-01-25T07:42:56.832Z,18.99
2017-01-25T07:43:56.466Z,19
2017-01-25T07:44:56.886Z,19.04
2017-01-25T07:45:57.555Z,18.98
2017-01-25T07:46:56.941Z,18.95
2017-01-25T07:47:57.357Z,18.99
2017-01-25T07:48:56.985Z,18.88
2017-01-25T07:49:57.018Z,18.94
2017-01-25T07:50:57.282Z,19
2017-01-25T07:51:57.059Z,19.02
2017-01-25T07:52:57.476Z,18.92
2017-01-25T07:53:57.109Z,18.98
2017-01-25T07:54:57.134Z,18.92
2017-01-25T07:55:57.414Z,18.88
2017-01-25T07:56:57.184Z,18.94
2017-01-25T07:57:57.639Z,18.88
2017-01-25T07:58:57.629Z,18.9
2017-01-25T07:59:56.862Z,18.9
2017-01-25T08:00:57.153Z,18.9
2017-01-25T08:01:56.920Z,18.88
2017-01-25T08:02:57.335Z,18.85
2017-01-25T08:03:56.993Z,18.87
2017-01-25T08:04:57.381Z,18.87
2017-01-25T08:05:57.666Z,18.8
2017-01-25T08:06:57.034Z,18.9
2017-01-25T08:07:57.463Z,18.8
2017-01-25T08:08:57.885Z,18.8
2017-01-25T08:09:57.534Z,18.8
2017-01-25T08:10:57.394Z,18.75
2017-01-25T08:11:57.166Z,18.78
2017-01-25T08:12:57.583Z,18.84
2017-01-25T08:13:57.631Z,18.78
2017-01-25T08:14:57.241Z,18.78
2017-01-25T08:15:57.514Z,18.8
2017-01-25T08:16:57.694Z,18.82
2017-01-25T08:17:57.750Z,18.84
2017-01-25T08:18:57.740Z,18.78
2017-01-25T08:19:58.160Z,18.81
2017-01-25T08:20:57.645Z,18.78
2017-01-25T08:21:57.417Z,18.8
2017-01-25T08:22:58.234Z,18.75
2017-01-25T08:23:58.258Z,18.82
2017-01-25T08:24:57.891Z,18.73
2017-01-25T08:25:58.156Z,18.7
2017-01-25T08:26:57.540Z,18.82
2017-01-25T08:27:57.965Z,18.73
2017-01-25T08:28:57.990Z,18.69
2017-01-25T08:29:58.014Z,18.72
2017-01-25T08:30:57.891Z,18.73
2017-01-25T08:31:58.052Z,18.78
2017-01-25T08:32:57.689Z,18.66
2017-01-25T08:33:58.505Z,18.66
2017-01-25T08:34:58.138Z,18.62
2017-01-25T08:35:58.066Z,18.67
2017-01-25T08:36:58.583Z,18.62
2017-01-25T08:37:58.222Z,18.65
2017-01-25T08:38:57.845Z,18.65
2017-01-25T08:39:58.661Z,18.6
2017-01-25T08:40:58.686Z,18.6
2017-01-25T08:41:58.710Z,18.66
2017-01-25T08:42:58.339Z,18.6
2017-01-25T08:43:58.761Z,18.66
2017-01-25T08:44:58.390Z,18.69
2017-01-25T08:45:58.018Z,18.63
2017-01-25T08:46:58.687Z,18.6
2017-01-25T08:47:58.071Z,18.57
2017-01-25T08:48:58.092Z,18.65
2017-01-25T08:49:58.114Z,18.63
2017-01-25T08:50:58.530Z,18.63
2017-01-25T08:51:58.818Z,18.63
2017-01-25T08:52:58.982Z,18.44
2017-01-25T08:53:58.221Z,18.47
2017-01-25T08:54:58.640Z,18.57
2017-01-25T08:55:58.267Z,18.48
2017-01-25T08:56:58.934Z,18.54
2017-01-25T08:57:58.306Z,18.5
2017-01-25T08:58:59.131Z,18.47
2017-01-25T08:59:58.764Z,18.5
2017-01-25T09:00:58.389Z,18.45
2017-01-25T09:01:59.453Z,18.54
2017-01-25T09:02:59.231Z,18.41
2017-01-25T09:03:58.466Z,18.44
2017-01-25T09:04:58.888Z,18.44
2017-01-25T09:05:58.510Z,18.41
2017-01-25T09:06:59.189Z,18.47
2017-01-25T09:07:58.966Z,18.47
2017-01-25T09:08:58.991Z,18.44
2017-01-25T09:09:58.611Z,18.44
2017-01-25T09:10:59.034Z,18.44
2017-01-25T09:11:59.716Z,18.42
2017-01-25T09:12:58.689Z,18.41
2017-01-25T09:13:58.715Z,18.41
2017-01-25T09:14:58.735Z,18.39
2017-01-25T09:15:59.165Z,18.35
2017-01-25T09:16:59.041Z,18.39
2017-01-25T09:17:59.209Z,18.35
2017-01-25T09:18:59.638Z,18.33
2017-01-25T09:19:59.263Z,18.36
2017-01-25T09:20:59.692Z,18.36
2017-01-25T09:21:59.819Z,18.35
2017-01-25T09:22:59.734Z,18.36
2017-01-25T09:23:59.357Z,18.36
2017-01-25T09:24:58.989Z,18.36
2017-01-25T09:25:59.407Z,18.33
2017-01-25T09:26:59.040Z,18.33
2017-01-25T09:27:59.852Z,18.36
2017-01-25T09:28:59.486Z,18.36
2017-01-25T09:29:59.507Z,18.32
2017-01-25T09:30:59.537Z,18.32
2017-01-25T09:31:59.956Z,18.3
2017-01-25T09:32:59.985Z,18.26
2017-01-25T09:34:00.005Z,18.3
2017-01-25T09:34:59.638Z,18.23
2017-01-25T09:35:59.268Z,18.25
2017-01-25T09:36:59.683Z,18.23
2017-01-25T09:37:59.960Z,18.25
2017-01-25T09:38:59.738Z,18.3
2017-01-25T09:39:59.365Z,18.2
2017-01-25T09:40:59.380Z,18.23
2017-01-25T09:41:59.808Z,18.29
2017-01-25T09:43:00.481Z,18.23
2017-01-25T09:43:59.857Z,18.23
2017-01-25T09:44:59.486Z,18.21
2017-01-25T09:45:59.515Z,18.27
2017-01-25T09:47:00.351Z,18.21
2017-01-25T09:48:00.211Z,18.27
2017-01-25T09:48:59.981Z,18.21
2017-01-25T09:49:59.610Z,18.23
2017-01-25T09:50:59.642Z,18.18
2017-01-25T09:52:00.060Z,18.21
2017-01-25T09:53:00.328Z,18.15
2017-01-25T09:54:00.109Z,18.2
2017-01-25T09:54:59.734Z,18.2
2017-01-25T09:55:59.765Z,18.12
2017-01-25T09:57:00.178Z,18.18
2017-01-25T09:58:00.456Z,18.18
2017-01-25T09:59:00.236Z,18.14
2017-01-25T10:00:00.257Z,18.11
2017-01-25T10:01:00.283Z,18.25
2017-01-25T10:02:00.699Z,18.17
2017-01-25T10:03:00.831Z,18.08
2017-01-25T10:04:00.757Z,18.21
2017-01-25T10:05:00.377Z,18.2
2017-01-25T10:06:00.401Z,18.12
2017-01-25T10:07:00.431Z,18.12
2017-01-25T10:08:00.455Z,18.08
2017-01-25T10:09:00.481Z,18.17
2017-01-25T10:10:00.505Z,18.11
2017-01-25T10:11:00.931Z,18.15
2017-01-25T10:12:00.943Z,18.15
2017-01-25T10:13:00.583Z,18.14
2017-01-25T10:14:00.199Z,18.14
2017-01-25T10:15:01.029Z,18.2
2017-01-25T10:16:00.649Z,18.12
2017-01-25T10:17:01.070Z,18.14
2017-01-25T10:18:01.102Z,18.12
2017-01-25T10:19:32.835Z,18.12
2017-01-25T10:20:15.232Z,18.1
2017-01-25T10:23:28.067Z,18.1
2017-01-25T10:24:28.626Z,18.15
2017-01-25T10:25:28.260Z,18.14
2017-01-25T10:26:28.684Z,18.1
2017-01-25T10:27:28.312Z,18.11
2017-01-25T10:28:28.194Z,18.11
2017-01-25T10:29:28.358Z,18.03
2017-01-25T10:30:28.778Z,18.12
2017-01-25T10:31:28.008Z,18.11
2017-01-25T10:32:28.868Z,18
2017-01-25T10:33:28.314Z,18.12
2017-01-25T10:34:28.877Z,18.15
2017-01-25T10:35:28.117Z,18.02
2017-01-25T10:36:28.135Z,18.08
2017-01-25T10:37:28.561Z,18.05
2017-01-25T10:38:29.084Z,18.08
2017-01-25T10:39:28.597Z,18.1
2017-01-25T10:40:29.026Z,18
2017-01-25T10:41:28.650Z,18.03
2017-01-25T10:42:28.283Z,18.08
2017-01-25T10:43:28.951Z,17.99
2017-01-25T10:44:28.726Z,18.07
2017-01-25T10:45:29.150Z,18.03
2017-01-25T10:46:28.778Z,18.05
2017-01-25T10:47:28.408Z,18
2017-01-25T10:48:28.427Z,18.02
2017-01-25T10:49:28.852Z,18.17
2017-01-25T10:50:29.272Z,18.05
2017-01-25T10:51:28.906Z,18.05
2017-01-25T10:52:28.919Z,17.99
2017-01-25T10:53:28.556Z,18
2017-01-25T10:54:28.824Z,18.08
2017-01-25T10:55:29.005Z,18
2017-01-25T10:56:28.621Z,18.07
2017-01-25T10:57:29.446Z,17.97
2017-01-25T10:58:29.075Z,18.11
2017-01-25T10:59:28.951Z,18.05
2017-01-25T11:00:29.132Z,18.12
2017-01-25T11:01:29.542Z,18.11
2017-01-25T11:02:29.601Z,18.08
2017-01-25T11:03:29.590Z,17.97
2017-01-25T11:04:29.866Z,18.11
2017-01-25T11:05:29.240Z,18.07
2017-01-25T11:06:29.280Z,18.15
2017-01-25T11:07:28.901Z,18.1
2017-01-25T11:08:29.321Z,17.97
2017-01-25T11:09:30.251Z,17.97
2017-01-25T11:10:28.976Z,17.97
2017-01-25T11:11:29.396Z,18
2017-01-25T11:12:29.009Z,18.07
2017-01-25T11:13:29.442Z,18.02
2017-01-25T11:14:30.132Z,17.96
2017-01-25T11:15:29.491Z,18.02
2017-01-25T11:16:29.126Z,17.95
2017-01-25T11:17:29.144Z,18.02
2017-01-25T11:18:29.178Z,18.07
2017-01-25T11:19:29.594Z,18.07
2017-01-25T11:20:30.011Z,18.08
2017-01-25T11:21:29.249Z,17.93
2017-01-25T11:22:29.664Z,17.95
2017-01-25T11:23:30.089Z,17.97
2017-01-25T11:24:29.713Z,18.08
2017-01-25T11:25:29.346Z,17.99
2017-01-25T11:26:29.766Z,17.96
2017-01-25T11:27:30.188Z,18.07
2017-01-25T11:28:29.819Z,18
2017-01-25T11:29:30.240Z,17.95
2017-01-25T11:30:29.875Z,17.95
2017-01-25T11:31:30.298Z,17.97
2017-01-25T11:32:30.306Z,17.96
2017-01-25T11:33:29.540Z,17.95
2017-01-25T11:34:29.969Z,17.95
2017-01-25T11:35:30.381Z,17.97
2017-01-25T11:36:29.616Z,17.95
2017-01-25T11:37:30.426Z,17.93
2017-01-25T11:38:30.060Z,17.95
2017-01-25T11:39:30.477Z,17.93
2017-01-25T11:40:30.114Z,17.96
2017-01-25T11:41:30.534Z,17.97
2017-01-25T11:42:30.162Z,17.95
2017-01-25T11:43:30.183Z,18
2017-01-25T11:44:29.809Z,17.99
2017-01-25T11:45:30.880Z,17.99
2017-01-25T11:46:30.661Z,18.02
2017-01-25T11:47:30.292Z,18.03
2017-01-25T11:48:30.707Z,18.08
2017-01-25T11:49:30.336Z,18.02
2017-01-25T11:50:31.260Z,17.99
2017-01-25T11:51:30.782Z,18.08
2017-01-25T11:52:30.801Z,18.02
2017-01-25T11:53:30.080Z,18.07
2017-01-25T11:54:30.455Z,18.1
2017-01-25T11:55:30.489Z,18.14
2017-01-25T11:56:30.517Z,18.07
2017-01-25T11:57:30.933Z,18.07
2017-01-25T11:58:30.954Z,18.17
2017-01-25T11:59:30.980Z,18.11
2017-01-25T12:00:30.204Z,18.14
2017-01-25T12:01:31.029Z,18.21
2017-01-25T12:02:31.058Z,18.18
2017-01-25T12:03:30.682Z,18.18
2017-01-25T12:04:31.099Z,18.2
2017-01-25T12:05:30.339Z,18.14
2017-01-25T12:06:31.407Z,18.2
2017-01-25T12:07:31.173Z,18.26
2017-01-25T12:08:31.201Z,18.21
2017-01-25T12:09:30.830Z,18.17
2017-01-25T12:10:31.247Z,18.15
2017-01-25T12:11:31.380Z,18.14
2017-01-25T12:12:31.304Z,18.2
2017-01-25T12:13:30.533Z,18.21
2017-01-25T12:14:30.974Z,18.14
2017-01-25T12:15:30.993Z,18.18
2017-01-25T12:16:31.251Z,18.14
2017-01-25T12:17:30.633Z,18.18
2017-01-25T12:18:31.049Z,18.2
2017-01-25T12:19:31.473Z,18.2
2017-01-25T12:20:31.489Z,18.3
2017-01-25T12:21:31.770Z,18.23
2017-01-25T12:22:31.548Z,18.18
2017-01-25T12:23:31.177Z,18.25
2017-01-25T12:24:31.199Z,18.18
2017-01-25T12:25:30.837Z,18.17
2017-01-25T12:26:30.854Z,18.21
2017-01-25T12:27:31.274Z,18.18
2017-01-25T12:28:31.699Z,18.25
2017-01-25T12:29:31.749Z,18.2
2017-01-25T12:30:31.744Z,18.17
2017-01-25T12:31:31.773Z,18.18
2017-01-25T12:32:31.401Z,18.12
2017-01-25T12:33:31.422Z,18.18
2017-01-25T12:34:31.052Z,18.18
2017-01-25T12:35:31.082Z,18.18
2017-01-25T12:36:31.497Z,18.2
2017-01-25T12:37:31.925Z,18.17
2017-01-25T12:38:31.946Z,18.21
2017-01-25T12:39:31.971Z,18.14
2017-01-25T12:40:31.991Z,18.21
2017-01-25T12:41:32.018Z,18.17
2017-01-25T12:42:31.673Z,18.17
2017-01-25T12:43:32.069Z,18.15
2017-01-25T12:44:31.293Z,18.18
2017-01-25T12:45:31.322Z,18.11
2017-01-25T12:46:32.136Z,18.18
2017-01-25T12:47:32.020Z,18.2
2017-01-25T12:48:31.405Z,18.15
2017-01-25T12:49:32.217Z,18.14
2017-01-25T12:50:31.842Z,18.1
2017-01-25T12:51:31.879Z,18.07
2017-01-25T12:52:32.403Z,18.12
2017-01-25T12:53:31.520Z,18.17
2017-01-25T12:54:31.945Z,18.23
2017-01-25T12:55:32.366Z,18.03
2017-01-25T12:56:31.626Z,18.11
2017-01-25T12:57:31.874Z,18.12
2017-01-25T12:58:32.435Z,18.11
2017-01-25T12:59:32.465Z,18.12
2017-01-25T13:00:32.099Z,18.11
2017-01-25T13:01:32.520Z,18.11